Time;durP1;ratioP1;P1;durP2;ratioP2;P2;SDS_P1;SDS_P2;PMS_P1;PMS_P2;Temp;Humidity;BMP_temperature;BMP_pressure;BME280_temperature;BME280_humidity;BME280_pressure;Samples;Min_cycle;Max_cycle;Signal;HPM_P1;HPM_P2
2022/12/10 00:04:20;;;;;;;57.33;36.10;;;-0.10;99.90;;;;;;2612797;39;20766;-78
2022/12/10 00:10:07;;;;;;;58.30;35.27;;;0.10;99.90;;;;;;2613443;54;20394;-79
2022/12/10 00:15:54;;;;;;;59.90;34.80;;;0.00;99.90;;;;;;2613161;54;20416;-78
2022/12/10 00:21:43;;;;;;;67.23;35.40;;;0.00;99.90;;;;;;2614513;39;20500;-78
2022/12/10 00:27:31;;;;;;;70.87;37.13;;;0.00;99.90;;;;;;2614866;39;20789;-77
2022/12/10 00:40:04;;;;;;;61.43;34.60;;;-0.20;99.90;;;;;;2614125;47;20864;-77
2022/12/10 00:45:53;;;;;;;61.60;37.40;;;-0.10;99.90;;;;;;2614503;54;20395;-78
2022/12/10 00:51:40;;;;;;;53.77;33.57;;;-0.40;99.90;;;;;;2614150;54;20410;-77
2022/12/10 00:57:28;;;;;;;66.57;37.03;;;-0.40;99.90;;;;;;2613110;54;20634;-76
2022/12/10 01:03:16;;;;;;;64.17;36.50;;;-0.40;99.90;;;;;;2614468;54;20162;-75
2022/12/10 01:09:06;;;;;;;66.20;38.30;;;-0.30;99.90;;;;;;2614207;54;20415;-78
2022/12/10 01:14:54;;;;;;;64.17;34.97;;;-0.30;99.90;;;;;;2614689;39;20728;-77
2022/12/10 01:20:42;;;;;;;68.10;35.63;;;-0.30;99.90;;;;;;2614238;54;20162;-77
2022/12/10 01:26:32;;;;;;;58.67;33.97;;;-0.20;99.90;;;;;;2614156;54;20214;-79
2022/12/10 01:32:20;;;;;;;58.00;34.43;;;-0.20;99.90;;;;;;2615801;39;21488;-74
2022/12/10 01:38:07;;;;;;;59.27;36.20;;;-0.30;99.90;;;;;;2615601;54;20122;-78
2022/12/10 01:44:02;;;;;;;69.97;38.37;;;-0.20;99.90;;;;;;2613668;54;20146;-77
2022/12/10 01:49:50;;;;;;;65.83;37.10;;;-0.20;99.90;;;;;;2614665;54;21014;-75
2022/12/10 02:06:37;;;;;;;72.60;39.70;;;-0.10;99.90;;;;;;2613108;54;20414;-76
2022/12/10 02:12:34;;;;;;;67.13;38.37;;;0.00;99.90;;;;;;2613744;39;20783;-78
2022/12/10 02:18:28;;;;;;;69.00;39.33;;;0.00;99.90;;;;;;2613885;54;20421;-77
2022/12/10 02:33:55;;;;;;;64.93;39.80;;;-0.10;99.90;;;;;;2611299;46;20562;-76
2022/12/10 02:39:47;;;;;;;74.37;39.07;;;0.10;99.90;;;;;;2612808;54;20423;-77
2022/12/10 02:45:35;;;;;;;70.20;38.73;;;0.00;99.90;;;;;;2612675;54;20752;-75
2022/12/10 02:51:22;;;;;;;59.43;36.40;;;-0.10;99.90;;;;;;2614525;54;20395;-77
2022/12/10 02:57:18;;;;;;;77.37;41.87;;;-0.10;99.90;;;;;;2615227;39;20566;-76
2022/12/10 03:03:17;;;;;;;75.20;38.77;;;0.00;99.90;;;;;;2614722;54;20443;-75
2022/12/10 03:09:12;;;;;;;71.30;44.80;;;0.20;99.90;;;;;;2614931;54;20440;-77
2022/12/10 03:15:02;;;;;;;70.60;42.70;;;0.20;99.90;;;;;;2614789;54;20439;-77
2022/12/10 03:20:52;;;;;;;70.00;37.87;;;0.20;99.90;;;;;;2614566;54;20395;-75
2022/12/10 03:26:41;;;;;;;60.60;37.80;;;0.20;99.90;;;;;;2614965;54;20399;-77
2022/12/10 03:32:29;;;;;;;76.90;41.30;;;0.20;99.90;;;;;;2614831;54;20367;-75
2022/12/10 03:38:17;;;;;;;69.27;37.23;;;0.40;99.90;;;;;;2613343;54;20391;-76
2022/12/10 03:44:05;;;;;;;73.73;38.97;;;0.50;99.90;;;;;;2613941;47;20844;-78
2022/12/10 03:53:14;;;;;;;77.70;41.00;;;0.70;99.90;;;;;;2612097;54;21078;-77
2022/12/10 03:59:01;;;;;;;74.17;42.60;;;0.50;99.90;;;;;;2612688;54;20122;-79
2022/12/10 04:04:48;;;;;;;67.43;37.73;;;0.40;99.90;;;;;;2614173;54;20222;-77
2022/12/10 04:10:37;;;;;;;60.47;36.40;;;0.60;99.90;;;;;;2614923;54;20119;-75
2022/12/10 04:16:29;;;;;;;59.40;36.77;;;0.70;99.90;;;;;;2614714;54;20395;-75
2022/12/10 04:28:23;;;;;;;66.57;37.80;;;0.70;99.90;;;;;;2614263;54;20369;-75
2022/12/10 04:38:28;;;;;;;67.37;39.53;;;0.60;99.90;;;;;;2613753;54;20419;-77
2022/12/10 04:44:17;;;;;;;64.10;36.20;;;0.50;99.90;;;;;;2614093;54;20440;-76
2022/12/10 04:50:05;;;;;;;59.50;35.10;;;0.50;99.90;;;;;;2614950;54;20378;-75
2022/12/10 04:55:54;;;;;;;64.13;34.93;;;0.50;99.90;;;;;;2614629;54;20514;-75
2022/12/10 05:01:42;;;;;;;54.63;31.80;;;0.60;99.90;;;;;;2614308;54;20431;-75
2022/12/10 05:07:29;;;;;;;58.30;33.40;;;0.60;99.90;;;;;;2613353;39;20624;-76
2022/12/10 05:13:17;;;;;;;55.90;36.90;;;0.60;99.90;;;;;;2614628;54;20139;-75
2022/12/10 05:19:05;;;;;;;59.50;34.40;;;0.40;99.90;;;;;;2614178;54;20342;-77
2022/12/10 05:24:56;;;;;;;66.97;36.33;;;0.20;99.90;;;;;;2614511;54;20801;-76
2022/12/10 05:30:43;;;;;;;61.30;32.30;;;-0.20;99.90;;;;;;2614649;39;20731;-75
2022/12/10 05:33:57;;;;;;;58.13;32.70;;;-0.30;99.90;;;;;;2613624;54;20499;-78
2022/12/10 05:36:25;;;;;;;64.87;33.80;;;-0.30;99.90;;;;;;2614210;54;20151;-76
2022/12/10 05:42:13;;;;;;;59.67;35.23;;;-0.80;99.90;;;;;;2614311;54;20418;-74
2022/12/10 05:48:00;;;;;;;62.77;34.60;;;-0.80;99.90;;;;;;2614669;46;20153;-74
2022/12/10 05:53:48;;;;;;;59.07;33.07;;;-1.00;99.90;;;;;;2613169;54;20154;-76
2022/12/10 05:59:36;;;;;;;55.80;32.67;;;-1.40;99.90;;;;;;2614068;54;20375;-77
2022/12/10 06:05:24;;;;;;;57.27;31.77;;;-1.50;99.90;;;;;;2614274;54;20146;-76
2022/12/10 06:11:12;;;;;;;48.30;29.10;;;-1.50;99.90;;;;;;2613422;54;20710;-75
2022/12/10 06:17:00;;;;;;;64.80;36.10;;;-1.30;99.90;;;;;;2614805;54;20185;-75
2022/12/10 06:22:47;;;;;;;56.23;30.90;;;-1.40;99.90;;;;;;2615223;54;20121;-76
2022/12/10 06:28:36;;;;;;;55.83;29.97;;;-1.80;99.90;;;;;;2613943;54;20151;-74
2022/12/10 06:38:30;;;;;;;53.43;31.83;;;-2.10;99.90;;;;;;2614647;54;20936;-77
2022/12/10 06:44:18;;;;;;;58.00;31.50;;;-1.80;99.90;;;;;;2614986;54;20362;-76
2022/12/10 06:50:05;;;;;;;58.37;32.17;;;-1.60;99.90;;;;;;2614759;54;20183;-76
2022/12/10 06:55:53;;;;;;;56.27;32.77;;;-2.10;99.90;;;;;;2613949;54;20119;-76
2022/12/10 07:01:40;;;;;;;60.23;31.50;;;-2.10;99.90;;;;;;2614619;54;20636;-75
2022/12/10 07:07:28;;;;;;;54.90;29.80;;;-1.90;99.90;;;;;;2615232;54;20126;-75
2022/12/10 07:13:16;;;;;;;56.20;30.97;;;-1.80;99.90;;;;;;2614587;39;20453;-77
2022/12/10 07:19:04;;;;;;;58.73;32.20;;;-2.00;99.90;;;;;;2615049;54;20138;-75
2022/12/10 07:24:52;;;;;;;67.60;29.80;;;-2.00;99.90;;;;;;2612598;54;20656;-77
2022/12/10 07:30:40;;;;;;;69.80;32.17;;;-1.80;99.90;;;;;;2614763;39;20447;-74
2022/12/10 07:33:58;;;;;;;63.47;29.67;;;-1.70;99.90;;;;;;2612895;54;21032;-73
2022/12/10 07:36:25;;;;;;;74.17;35.63;;;-1.60;99.90;;;;;;2611257;54;20162;-76
2022/12/10 07:42:12;;;;;;;76.37;35.27;;;-1.30;99.90;;;;;;2612047;54;20385;-76
2022/12/10 07:47:59;;;;;;;78.30;32.20;;;-1.30;99.90;;;;;;2613429;39;20533;-75
2022/12/10 07:53:50;;;;;;;89.37;36.13;;;-1.20;99.90;;;;;;2613046;54;20243;-76
2022/12/10 07:59:37;;;;;;;82.43;42.07;;;-1.10;99.90;;;;;;2614146;54;20865;-75
2022/12/10 08:05:25;;;;;;;80.87;29.70;;;-1.10;99.90;;;;;;2613557;54;20146;-75
2022/12/10 08:11:15;;;;;;;72.40;34.53;;;-1.00;99.90;;;;;;2612967;39;20581;-77
2022/12/10 08:17:03;;;;;;;59.57;28.70;;;-1.00;99.90;;;;;;2612560;54;20411;-76
2022/12/10 08:22:51;;;;;;;69.47;28.57;;;-0.80;99.90;;;;;;2613432;54;20387;-74
2022/12/10 08:28:39;;;;;;;77.20;32.77;;;-0.70;99.90;;;;;;2614876;54;20520;-76
2022/12/10 08:38:30;;;;;;;93.93;45.67;;;-0.60;99.90;;;;;;2614753;54;20936;-76
2022/12/10 08:44:18;;;;;;;99.17;43.87;;;-0.50;99.90;;;;;;2614999;54;20382;-75
2022/12/10 08:50:06;;;;;;;98.80;42.40;;;-0.60;99.90;;;;;;2614728;39;20586;-75
2022/12/10 08:55:53;;;;;;;71.63;35.57;;;-0.60;99.90;;;;;;2614540;39;20779;-76
2022/12/10 09:01:41;;;;;;;108.40;40.90;;;-0.40;99.90;;;;;;2614372;54;20138;-76
2022/12/10 09:07:29;;;;;;;93.73;40.40;;;-0.20;99.90;;;;;;2614154;54;20797;-77
2022/12/10 09:13:17;;;;;;;90.50;37.27;;;-0.20;99.90;;;;;;2614653;54;20211;-75
2022/12/10 09:19:06;;;;;;;89.97;38.07;;;0.00;99.90;;;;;;2614199;54;20134;-76
2022/12/10 09:24:54;;;;;;;79.70;36.63;;;-0.20;99.90;;;;;;2614347;54;20383;-76
2022/12/10 09:30:42;;;;;;;90.80;42.30;;;-0.10;99.90;;;;;;2613653;54;20394;-76
2022/12/10 09:33:58;;;;;;;93.30;42.37;;;-0.10;99.90;;;;;;2612515;54;20403;-77
2022/12/10 09:36:23;;;;;;;89.83;42.47;;;-0.10;99.90;;;;;;2613677;54;20151;-75
2022/12/10 09:53:11;;;;;;;97.60;44.63;;;0.10;99.90;;;;;;2612848;54;21137;-76
2022/12/10 09:59:02;;;;;;;82.93;38.07;;;0.20;99.90;;;;;;2613335;46;20522;-76
2022/12/10 10:11:23;;;;;;;96.10;40.37;;;0.10;99.90;;;;;;2613692;47;20385;-76
2022/12/10 10:20:54;;;;;;;114.63;47.70;;;0.20;99.90;;;;;;2609514;54;20378;-73
2022/12/10 10:23:20;;;;;;;122.63;50.90;;;0.20;99.90;;;;;;2612774;54;20426;-73
2022/12/10 10:29:10;;;;;;;101.87;43.40;;;0.20;99.90;;;;;;2613366;54;20133;-77
2022/12/10 10:38:30;;;;;;;109.37;48.27;;;0.40;99.90;;;;;;2614966;54;20424;-74
2022/12/10 10:44:22;;;;;;;107.47;51.10;;;0.40;99.90;;;;;;2614779;54;20375;-77
2022/12/10 10:56:48;;;;;;;94.97;45.07;;;0.40;99.90;;;;;;2614276;54;20464;-75
2022/12/10 11:02:40;;;;;;;92.53;42.43;;;0.20;99.90;;;;;;2613790;54;20159;-76
2022/12/10 11:08:31;;;;;;;89.83;40.10;;;0.20;99.90;;;;;;2614616;54;20374;-77
2022/12/10 11:21:03;;;;;;;93.17;42.33;;;0.50;99.90;;;;;;2614700;54;20399;-74
2022/12/10 11:27:06;;;;;;;91.17;42.57;;;0.50;99.90;;;;;;2614375;54;20861;-75
2022/12/10 11:33:13;;;;;;;73.47;31.57;;;0.10;99.90;;;;;;2614776;54;20419;-77
2022/12/10 12:02:57;;;;;;;69.07;33.83;;;0.20;99.90;;;;;;2614136;54;20414;-76
2022/12/10 12:15:13;;;;;;;65.30;27.50;;;0.20;99.90;;;;;;2615437;39;20477;-78
2022/12/10 12:21:10;;;;;;;69.90;31.93;;;0.30;99.90;;;;;;2614096;54;20146;-77
2022/12/10 12:27:05;;;;;;;70.37;28.83;;;0.30;99.90;;;;;;2615074;54;20410;-79
2022/12/10 12:50:17;;;;;;;60.83;28.50;;;0.30;99.90;;;;;;2613895;54;20420;-80
2022/12/10 13:09:13;;;;;;;68.63;36.30;;;0.40;99.90;;;;;;2613613;54;20371;-79
2022/12/10 13:21:31;;;;;;;86.83;36.80;;;0.20;99.90;;;;;;2614804;39;20771;-77
2022/12/10 13:40:08;;;;;;;75.37;34.40;;;0.40;99.90;;;;;;2615056;54;20422;-78
2022/12/10 13:49:06;;;;;;;55.07;28.30;;;0.50;99.90;;;;;;2614271;39;20848;-80
2022/12/10 14:08:01;;;;;;;61.33;32.07;;;0.40;99.90;;;;;;2616294;54;20386;-81
2022/12/10 14:13:54;;;;;;;51.93;26.20;;;0.50;99.90;;;;;;2616511;54;20373;-77
2022/12/10 14:19:44;;;;;;;51.17;25.77;;;0.50;99.90;;;;;;2615948;54;20374;-80
2022/12/10 14:32:11;;;;;;;48.47;26.53;;;0.30;99.90;;;;;;2615654;54;20366;-80
2022/12/10 14:37:59;;;;;;;59.20;28.50;;;0.30;99.90;;;;;;2616278;31;20864;-79
2022/12/10 14:43:47;;;;;;;60.77;30.77;;;0.50;99.90;;;;;;2612941;54;20950;-79
2022/12/10 14:49:40;;;;;;;51.73;28.57;;;0.50;99.90;;;;;;2615346;54;20430;-78
2022/12/10 14:55:33;;;;;;;56.97;29.13;;;0.40;99.90;;;;;;2615299;47;20662;-78
2022/12/10 15:08:13;;;;;;;65.53;30.03;;;0.50;99.90;;;;;;2612323;54;20421;-80
2022/12/10 15:14:03;;;;;;;58.77;31.27;;;0.60;99.90;;;;;;2614190;54;20453;-79
2022/12/10 15:19:50;;;;;;;64.47;32.70;;;0.50;99.90;;;;;;2613537;54;20378;-78
2022/12/10 15:25:45;;;;;;;60.20;30.47;;;0.40;99.90;;;;;;2613285;54;20427;-78
2022/12/10 15:31:32;;;;;;;63.97;32.20;;;0.60;99.90;;;;;;2613739;54;20399;-79
2022/12/10 15:37:22;;;;;;;69.30;30.63;;;0.60;99.90;;;;;;2614049;54;20150;-75
2022/12/10 15:49:47;;;;;;;55.80;29.30;;;0.60;99.90;;;;;;2615714;54;20399;-79
2022/12/10 15:55:35;;;;;;;57.13;28.57;;;0.70;99.90;;;;;;2615440;54;20435;-79
2022/12/10 16:01:23;;;;;;;52.07;25.87;;;0.60;99.90;;;;;;2613709;54;20641;-77
2022/12/10 16:07:11;;;;;;;53.87;30.90;;;0.70;99.90;;;;;;2615233;54;20368;-79
2022/12/10 16:13:02;;;;;;;59.20;30.90;;;0.60;99.90;;;;;;2613847;54;20166;-79
2022/12/10 16:18:50;;;;;;;59.90;29.87;;;0.60;99.90;;;;;;2613133;39;20745;-75
2022/12/10 16:24:38;;;;;;;64.87;32.63;;;0.70;99.90;;;;;;2614436;54;20932;-80
2022/12/10 16:36:56;;;;;;;61.30;33.37;;;0.60;99.90;;;;;;2614979;54;20383;-77
2022/12/10 16:42:44;;;;;;;64.03;32.67;;;0.50;99.90;;;;;;2614875;54;20154;-78
2022/12/10 16:48:31;;;;;;;64.10;32.27;;;0.60;99.90;;;;;;2613887;54;20238;-79
2022/12/10 16:54:19;;;;;;;65.37;35.40;;;0.60;99.90;;;;;;2613838;54;20150;-79
2022/12/10 17:00:08;;;;;;;57.00;30.37;;;0.60;99.90;;;;;;2614801;54;20138;-79
2022/12/10 17:05:58;;;;;;;68.40;31.10;;;0.60;99.90;;;;;;2614846;54;20431;-80
2022/12/10 17:11:49;;;;;;;64.23;34.20;;;0.70;99.90;;;;;;2614818;54;20386;-80
2022/12/10 17:17:37;;;;;;;64.47;35.13;;;0.80;99.90;;;;;;2614760;54;20371;-79
2022/12/10 17:23:25;;;;;;;71.90;31.97;;;0.60;99.90;;;;;;2614458;54;20145;-76
2022/12/10 17:29:15;;;;;;;60.23;31.53;;;0.70;99.90;;;;;;2615215;46;20149;-80
2022/12/10 17:35:03;;;;;;;71.80;33.93;;;0.70;99.90;;;;;;2614869;54;20407;-79
2022/12/10 17:38:19;;;;;;;65.13;30.50;;;0.70;99.90;;;;;;2614259;54;20418;-79
2022/12/10 17:40:45;;;;;;;68.50;32.97;;;0.80;99.90;;;;;;2615398;54;20945;-80
2022/12/10 17:46:33;;;;;;;58.50;28.90;;;0.70;99.90;;;;;;2614602;54;20479;-78
2022/12/10 17:52:20;;;;;;;62.63;28.80;;;0.70;99.90;;;;;;2614543;54;20427;-76
2022/12/10 17:58:10;;;;;;;66.80;32.67;;;0.80;99.90;;;;;;2615236;54;20763;-79
2022/12/10 18:03:58;;;;;;;62.77;33.90;;;0.80;99.90;;;;;;2616178;39;20765;-80
2022/12/10 18:09:46;;;;;;;65.33;32.87;;;0.90;99.90;;;;;;2615580;54;20732;-78
2022/12/10 18:15:35;;;;;;;62.93;30.07;;;0.80;99.90;;;;;;2615547;54;20387;-79
2022/12/10 18:21:23;;;;;;;54.60;29.20;;;0.80;99.90;;;;;;2615210;54;21035;-80
2022/12/10 18:27:14;;;;;;;63.57;30.23;;;0.90;99.90;;;;;;2615999;46;20146;-78
2022/12/10 18:33:02;;;;;;;64.40;31.60;;;0.90;99.90;;;;;;2615874;54;20447;-81
2022/12/10 18:42:52;;;;;;;60.03;32.67;;;0.90;99.90;;;;;;2614957;39;20768;-79
2022/12/10 18:48:40;;;;;;;47.20;26.57;;;0.80;99.90;;;;;;2615547;54;20499;-77
2022/12/10 18:54:28;;;;;;;91.03;42.83;;;0.70;99.90;;;;;;2612720;54;20458;-80
2022/12/10 19:00:20;;;;;;;53.67;26.57;;;0.90;99.90;;;;;;2613477;54;20130;-78
2022/12/10 19:06:16;;;;;;;51.83;29.60;;;0.80;99.90;;;;;;2613914;54;21011;-77
2022/12/10 19:12:03;;;;;;;55.10;35.13;;;0.80;99.90;;;;;;2611979;54;20478;-77
2022/12/10 19:17:51;;;;;;;58.93;29.17;;;0.90;99.90;;;;;;2611963;54;20165;-76
2022/12/10 19:23:39;;;;;;;47.27;24.30;;;0.90;99.90;;;;;;2612204;54;20199;-79
2022/12/10 19:29:27;;;;;;;49.70;27.00;;;1.00;99.90;;;;;;2613259;54;20384;-79
2022/12/10 19:35:17;;;;;;;44.67;23.67;;;0.80;99.90;;;;;;2613900;39;20556;-79
2022/12/10 19:38:21;;;;;;;42.00;24.60;;;0.90;99.90;;;;;;2611789;54;20400;-79
2022/12/10 19:40:47;;;;;;;47.30;25.20;;;0.90;99.90;;;;;;2612732;47;20430;-75
2022/12/10 19:43:13;;;;;;;47.67;25.97;;;0.80;99.90;;;;;;2613691;54;20403;-79
2022/12/10 19:45:38;;;;;;;34.90;20.30;;;0.80;99.90;;;;;;2613199;54;20151;-78
2022/12/10 19:51:26;;;;;;;50.93;25.20;;;0.80;99.90;;;;;;2611885;54;20134;-76
2022/12/10 19:57:14;;;;;;;39.60;21.00;;;1.00;99.90;;;;;;2612638;54;20131;-79
2022/12/10 20:03:02;;;;;;;46.63;22.90;;;0.90;99.90;;;;;;2612942;54;20387;-78
2022/12/10 20:08:50;;;;;;;42.13;23.00;;;0.90;99.90;;;;;;2611800;54;20133;-77
2022/12/10 20:14:38;;;;;;;49.10;26.13;;;0.90;99.90;;;;;;2611863;54;20239;-75
2022/12/10 20:20:28;;;;;;;47.63;25.50;;;1.00;99.90;;;;;;2611350;54;20950;-78
2022/12/10 20:26:22;;;;;;;52.00;28.53;;;1.00;99.90;;;;;;2611636;54;20387;-78
2022/12/10 20:32:10;;;;;;;47.27;25.17;;;0.90;99.90;;;;;;2614375;54;20374;-78
2022/12/10 20:37:57;;;;;;;53.57;24.97;;;0.90;99.90;;;;;;2613253;54;20254;-81
2022/12/10 20:43:46;;;;;;;70.10;31.43;;;1.00;99.90;;;;;;2614506;54;20257;-77
2022/12/10 20:49:34;;;;;;;56.67;27.30;;;1.00;99.90;;;;;;2614473;54;20422;-74
2022/12/10 20:55:21;;;;;;;56.37;27.40;;;1.00;99.90;;;;;;2614751;54;20488;-79
2022/12/10 21:01:10;;;;;;;46.77;26.33;;;0.90;99.90;;;;;;2613878;54;20563;-77
2022/12/10 21:06:57;;;;;;;49.50;20.80;;;0.90;99.90;;;;;;2615671;39;20783;-78
2022/12/10 21:12:45;;;;;;;38.23;22.70;;;0.80;99.90;;;;;;2614200;54;20174;-79
2022/12/10 21:18:33;;;;;;;42.03;20.60;;;0.80;99.90;;;;;;2614693;54;20158;-78
2022/12/10 21:24:21;;;;;;;47.07;25.33;;;0.90;99.90;;;;;;2614315;54;20131;-79
2022/12/10 21:30:11;;;;;;;42.00;22.87;;;0.80;99.90;;;;;;2614079;39;20623;-77
2022/12/10 21:35:58;;;;;;;44.00;21.00;;;0.80;99.90;;;;;;2614715;54;20415;-78
2022/12/10 21:38:24;;;;;;;49.47;25.83;;;0.70;99.90;;;;;;2613977;52;20503;-78
2022/12/10 21:40:51;;;;;;;47.47;24.50;;;0.70;99.90;;;;;;2612647;54;20193;-74
2022/12/10 21:46:40;;;;;;;51.43;26.07;;;0.80;99.90;;;;;;2615419;54;20394;-80
2022/12/10 21:52:28;;;;;;;50.07;21.40;;;0.90;99.90;;;;;;2615083;39;20464;-77
2022/12/10 21:58:16;;;;;;;48.60;23.13;;;0.80;99.90;;;;;;2616488;39;20517;-78
2022/12/10 22:04:03;;;;;;;52.63;27.37;;;0.70;99.90;;;;;;2615982;54;20150;-78
2022/12/10 22:09:51;;;;;;;60.50;26.20;;;0.70;99.90;;;;;;2616307;39;20759;-78
2022/12/10 22:12:56;;;;;;;53.23;26.23;;;0.80;99.90;;;;;;2615578;54;20394;-78
2022/12/10 22:15:22;;;;;;;44.30;23.73;;;0.70;99.90;;;;;;2615497;39;20614;-78
2022/12/10 22:21:10;;;;;;;43.10;22.37;;;0.60;99.90;;;;;;2614659;54;20239;-76
2022/12/10 22:26:58;;;;;;;41.80;21.07;;;0.60;99.90;;;;;;2615260;54;20600;-78
2022/12/10 22:32:45;;;;;;;36.77;19.13;;;0.60;99.90;;;;;;2616081;54;20147;-79
2022/12/10 22:42:54;;;;;;;57.20;25.33;;;0.60;99.90;;;;;;2615044;54;20383;-76
2022/12/10 22:48:42;;;;;;;60.77;31.63;;;0.60;99.90;;;;;;2615175;54;20467;-78
2022/12/10 22:54:30;;;;;;;59.20;25.63;;;0.50;99.90;;;;;;2615751;39;20537;-78
2022/12/10 23:00:19;;;;;;;61.20;25.90;;;0.60;99.90;;;;;;2614048;54;20212;-79
2022/12/10 23:06:07;;;;;;;58.10;25.03;;;0.60;99.90;;;;;;2615612;54;20503;-78
2022/12/10 23:18:01;;;;;;;51.67;22.77;;;0.40;99.90;;;;;;2616366;54;20431;-78
2022/12/10 23:23:49;;;;;;;58.60;24.97;;;0.30;99.90;;;;;;2616119;54;20139;-78
2022/12/10 23:29:37;;;;;;;45.20;22.10;;;0.30;99.90;;;;;;2615272;46;20362;-79
2022/12/10 23:35:25;;;;;;;43.53;21.47;;;0.20;99.90;;;;;;2615926;54;20678;-78
2022/12/10 23:38:23;;;;;;;51.87;21.40;;;0.20;99.90;;;;;;2615775;54;20423;-77
2022/12/10 23:40:49;;;;;;;51.90;23.77;;;0.20;99.90;;;;;;2615996;54;20155;-74
2022/12/10 23:46:37;;;;;;;55.97;21.40;;;0.20;99.90;;;;;;2616029;54;20122;-78
2022/12/10 23:52:24;;;;;;;52.53;21.47;;;0.20;99.90;;;;;;2615657;54;20134;-76
2022/12/10 23:58:12;;;;;;;52.63;24.50;;;0.30;99.90;;;;;;2615047;54;20134;-79
